createdAt,value
2022-09-21T00:01:27.517Z,3.17
2022-09-21T00:03:56.903Z,3.65
2022-09-21T00:06:26.352Z,3.55
2022-09-21T00:08:54.898Z,3.08
2022-09-21T00:11:26.606Z,3.53
2022-09-21T00:13:57.849Z,3.25
2022-09-21T00:16:25.805Z,3.40
2022-09-21T00:18:54.043Z,2.92
2022-09-21T00:21:21.987Z,3.42
2022-09-21T00:23:50.058Z,3.42
2022-09-21T00:26:19.794Z,3.25
2022-09-21T00:28:48.730Z,3.17
2022-09-21T00:31:18.745Z,3.30
2022-09-21T00:33:47.034Z,3.40
2022-09-21T00:36:17.769Z,3.42
2022-09-21T00:38:47.037Z,3.28
2022-09-21T00:41:14.952Z,3.67
2022-09-21T00:43:48.041Z,3.28
2022-09-21T00:46:24.281Z,3.00
2022-09-21T00:48:52.144Z,3.75
2022-09-21T00:51:20.122Z,3.50
2022-09-21T00:53:52.744Z,3.20
2022-09-21T00:56:20.889Z,3.13
2022-09-21T00:58:52.317Z,3.20
2022-09-21T01:01:22.207Z,3.40
2022-09-21T01:03:51.345Z,3.00
2022-09-21T01:06:21.685Z,3.00
2022-09-21T01:08:54.187Z,3.40
2022-09-21T01:14:12.501Z,3.38
2022-09-21T01:16:48.874Z,3.05
2022-09-21T01:19:32.485Z,3.60
2022-09-21T01:22:08.334Z,3.13
2022-09-21T01:24:58.063Z,3.00
2022-09-21T01:28:05.353Z,2.58
2022-09-21T01:30:37.917Z,2.92
2022-09-21T01:35:41.660Z,2.08
2022-09-21T01:38:12.546Z,2.17
2022-09-21T01:40:44.890Z,2.25
2022-09-21T01:43:16.862Z,1.70
2022-09-21T01:45:50.203Z,2.08
2022-09-21T01:48:22.317Z,1.88
2022-09-21T01:50:55.034Z,2.22
2022-09-21T01:53:29.549Z,2.10
2022-09-21T01:56:00.782Z,2.40
2022-09-21T01:58:34.528Z,2.10
2022-09-21T02:01:06.373Z,2.63
2022-09-21T02:03:38.259Z,2.35
2022-09-21T02:06:07.969Z,2.28
2022-09-21T02:08:37.277Z,2.30
2022-09-21T02:11:06.897Z,1.80
2022-09-21T02:13:37.674Z,1.90
2022-09-21T02:16:21.830Z,2.13
2022-09-21T02:18:58.735Z,2.70
2022-09-21T02:21:33.093Z,2.17
2022-09-21T02:24:09.530Z,2.45
2022-09-21T02:26:46.415Z,2.53
2022-09-21T02:29:20.718Z,2.33
2022-09-21T02:31:56.393Z,2.53
2022-09-21T02:34:29.630Z,2.65
2022-09-21T02:37:03.604Z,2.53
2022-09-21T02:39:35.790Z,3.00
2022-09-21T02:42:10.331Z,2.50
2022-09-21T02:44:42.881Z,2.63
2022-09-21T02:49:46.910Z,2.13
2022-09-21T02:52:17.479Z,2.47
2022-09-21T02:54:50.599Z,2.50
2022-09-21T02:57:21.706Z,2.40
2022-09-21T02:59:50.382Z,2.45
2022-09-21T03:02:19.798Z,2.42
2022-09-21T03:04:49.967Z,1.90
2022-09-21T03:07:18.371Z,2.30
2022-09-21T03:09:46.535Z,1.95
2022-09-21T03:12:14.406Z,1.88
2022-09-21T03:14:42.554Z,2.10
2022-09-21T03:17:10.466Z,2.10
2022-09-21T03:19:39.716Z,1.95
2022-09-21T03:22:07.596Z,2.00
2022-09-21T03:24:47.624Z,2.15
2022-09-21T03:27:17.465Z,2.20
2022-09-21T03:29:45.334Z,2.10
2022-09-21T03:32:13.827Z,2.38
2022-09-21T03:34:43.496Z,2.35
2022-09-21T03:37:11.707Z,1.75
2022-09-21T03:39:39.570Z,2.13
2022-09-21T03:42:09.143Z,2.17
2022-09-21T03:44:38.195Z,2.60
2022-09-21T03:47:06.772Z,2.13
2022-09-21T03:49:35.078Z,2.35
2022-09-21T03:52:04.978Z,1.90
2022-09-21T03:54:32.834Z,2.40
2022-09-21T03:57:00.854Z,2.33
2022-09-21T03:59:28.737Z,2.53
2022-09-21T04:01:56.605Z,2.05
2022-09-21T04:04:24.621Z,2.08
2022-09-21T04:06:52.726Z,2.30
2022-09-21T04:09:21.984Z,2.60
2022-09-21T04:11:49.833Z,2.28
2022-09-21T04:14:17.701Z,2.78
2022-09-21T04:16:45.548Z,2.40
2022-09-21T04:19:13.634Z,2.40
2022-09-21T04:21:41.509Z,2.53
2022-09-21T04:24:09.395Z,2.45
2022-09-21T04:26:40.753Z,2.75
2022-09-21T04:29:08.636Z,2.42
2022-09-21T04:31:36.525Z,2.90
2022-09-21T04:34:04.394Z,2.80
2022-09-21T04:36:36.438Z,2.67
2022-09-21T04:41:33.071Z,3.20
2022-09-21T04:44:02.692Z,2.88
2022-09-21T04:46:30.647Z,3.47
2022-09-21T04:48:58.566Z,3.40
2022-09-21T04:51:26.420Z,3.38
2022-09-21T04:53:54.301Z,3.03
2022-09-21T04:56:22.162Z,2.83
2022-09-21T04:58:50.033Z,3.25
2022-09-21T05:01:19.285Z,3.30
2022-09-21T05:03:47.307Z,2.90
2022-09-21T05:06:15.244Z,3.30
2022-09-21T05:09:08.961Z,2.97
2022-09-21T05:11:36.802Z,3.60
2022-09-21T05:14:04.980Z,3.40
2022-09-21T05:16:34.694Z,3.30
2022-09-21T05:19:02.664Z,2.80
2022-09-21T05:21:31.647Z,3.50
2022-09-21T05:23:59.925Z,3.35
2022-09-21T05:26:27.826Z,3.17
2022-09-21T05:28:56.326Z,3.22
2022-09-21T05:31:37.969Z,3.10
2022-09-21T05:34:13.728Z,3.40
2022-09-21T05:36:47.610Z,3.50
2022-09-21T05:39:16.097Z,3.70
2022-09-21T05:41:44.607Z,3.55
2022-09-21T05:44:14.968Z,3.42
2022-09-21T05:46:55.376Z,3.97
2022-09-21T05:49:34.504Z,3.65
2022-09-21T05:52:12.546Z,4.50
2022-09-21T05:54:52.983Z,4.78
2022-09-21T05:57:30.633Z,4.82
2022-09-21T06:00:08.556Z,4.50
2022-09-21T06:02:51.547Z,4.60
2022-09-21T06:05:20.261Z,4.20
2022-09-21T06:07:48.110Z,4.30
2022-09-21T06:10:16.736Z,4.18
2022-09-21T06:12:44.720Z,4.78
2022-09-21T06:15:14.803Z,4.47
2022-09-21T06:17:44.435Z,5.28
2022-09-21T06:20:12.335Z,5.55
2022-09-21T06:22:40.250Z,5.53
2022-09-21T06:25:08.950Z,6.03
2022-09-21T06:27:36.856Z,4.95
2022-09-21T06:30:05.302Z,5.15
2022-09-21T06:32:33.152Z,5.18
2022-09-21T06:35:02.500Z,5.40
2022-09-21T06:37:30.350Z,5.55
2022-09-21T06:39:58.452Z,5.45
2022-09-21T06:42:27.778Z,5.95
2022-09-21T06:44:56.058Z,5.60
2022-09-21T06:47:23.987Z,6.75
2022-09-21T06:49:53.931Z,6.97
2022-09-21T06:52:23.194Z,6.10
2022-09-21T06:54:51.048Z,5.88
2022-09-21T06:57:18.896Z,5.95
2022-09-21T06:59:46.842Z,6.80
2022-09-21T07:02:14.835Z,6.53
2022-09-21T07:04:43.325Z,6.45
2022-09-21T07:07:11.238Z,6.05
2022-09-21T07:12:29.563Z,4.60
2022-09-21T07:14:57.485Z,4.50
2022-09-21T07:17:25.354Z,4.40
2022-09-21T07:19:53.217Z,5.05
2022-09-21T07:22:21.062Z,4.28
2022-09-21T07:24:50.344Z,4.13
2022-09-21T07:27:18.217Z,3.72
2022-09-21T07:29:46.072Z,3.58
2022-09-21T07:32:14.044Z,3.38
2022-09-21T07:34:42.039Z,3.47
2022-09-21T07:37:09.906Z,2.80
2022-09-21T07:39:38.882Z,2.83
2022-09-21T07:42:08.549Z,2.70
2022-09-21T07:44:36.448Z,2.63
2022-09-21T07:47:04.390Z,2.47
2022-09-21T07:49:32.319Z,2.50
2022-09-21T07:52:03.834Z,2.80
2022-09-21T07:54:32.496Z,2.53
2022-09-21T07:57:18.129Z,2.63
2022-09-21T07:59:47.422Z,2.15
2022-09-21T08:02:15.335Z,2.50
2022-09-21T08:04:43.205Z,2.20
2022-09-21T08:07:11.034Z,2.47
2022-09-21T08:09:38.878Z,2.28
2022-09-21T08:12:06.962Z,2.50
2022-09-21T08:14:35.368Z,2.30
2022-09-21T08:17:05.217Z,1.83
2022-09-21T08:19:33.164Z,1.60
2022-09-21T08:22:01.308Z,1.70
2022-09-21T08:24:29.296Z,1.33
2022-09-21T08:26:57.790Z,1.40
2022-09-21T08:29:26.169Z,1.60
2022-09-21T08:31:54.347Z,1.67
2022-09-21T08:34:24.247Z,1.75
2022-09-21T08:36:55.516Z,1.35
2022-09-21T08:39:24.496Z,1.20
2022-09-21T08:42:11.769Z,1.50
2022-09-21T08:44:42.055Z,1.60
2022-09-21T08:47:16.564Z,1.70
2022-09-21T08:49:50.356Z,1.70
2022-09-21T08:52:20.751Z,1.70
2022-09-21T08:54:52.818Z,1.83
2022-09-21T08:57:22.319Z,1.50
2022-09-21T08:59:51.811Z,1.70
2022-09-21T09:02:41.594Z,1.30
2022-09-21T09:05:28.409Z,1.17
2022-09-21T09:08:19.430Z,1.23
2022-09-21T09:11:02.455Z,1.67
2022-09-21T09:13:44.443Z,1.50
2022-09-21T09:16:19.357Z,1.50
2022-09-21T09:18:52.699Z,1.08
2022-09-21T09:21:31.290Z,1.52
2022-09-21T09:24:04.178Z,1.13
2022-09-21T09:26:39.822Z,1.58
2022-09-21T09:29:15.561Z,1.20
2022-09-21T09:31:43.926Z,1.50
2022-09-21T09:34:17.332Z,1.50
2022-09-21T09:36:58.719Z,1.60
2022-09-21T09:39:29.583Z,1.55
2022-09-21T09:42:12.898Z,1.60
2022-09-21T09:45:10.474Z,1.45
2022-09-21T09:47:48.531Z,1.35
2022-09-21T09:50:22.114Z,1.60
2022-09-21T09:52:54.177Z,1.30
2022-09-21T09:55:24.943Z,1.30
2022-09-21T09:57:56.029Z,1.35
2022-09-21T10:00:24.334Z,0.90
2022-09-21T10:02:53.634Z,1.15
2022-09-21T10:05:24.613Z,1.42
2022-09-21T10:07:54.078Z,1.60
2022-09-21T10:10:42.141Z,1.10
2022-09-21T10:13:15.171Z,1.27
2022-09-21T10:15:46.162Z,1.25
2022-09-21T10:18:21.129Z,1.27
2022-09-21T10:21:04.438Z,1.23
2022-09-21T10:23:34.871Z,1.27
2022-09-21T10:26:06.254Z,1.10
2022-09-21T10:28:34.991Z,1.60
2022-09-21T10:31:18.977Z,1.38
2022-09-21T10:33:53.619Z,1.30
2022-09-21T10:36:34.023Z,1.00
2022-09-21T10:39:24.434Z,1.02
2022-09-21T10:41:58.817Z,1.08
2022-09-21T10:44:30.188Z,1.00
2022-09-21T10:47:01.037Z,1.35
2022-09-21T10:49:30.600Z,1.05
2022-09-21T10:52:00.386Z,1.10
2022-09-21T10:54:33.954Z,0.82
2022-09-21T10:57:04.886Z,1.00
2022-09-21T10:59:34.359Z,1.00
2022-09-21T11:02:04.165Z,1.10
2022-09-21T11:04:43.256Z,0.98
2022-09-21T11:07:19.680Z,1.13
2022-09-21T11:09:59.837Z,0.90
2022-09-21T11:12:37.659Z,0.95
2022-09-21T11:15:16.748Z,1.30
2022-09-21T11:17:49.267Z,1.00
2022-09-21T11:20:26.170Z,1.23
2022-09-21T11:23:04.222Z,1.40
2022-09-21T11:25:41.402Z,1.10
2022-09-21T11:28:16.637Z,1.00
2022-09-21T11:31:05.246Z,1.10
2022-09-21T11:33:49.528Z,1.00
2022-09-21T11:36:25.239Z,1.10
2022-09-21T11:39:00.365Z,0.70
2022-09-21T11:41:51.356Z,1.08
2022-09-21T11:44:26.492Z,1.00
2022-09-21T11:47:06.665Z,1.23
2022-09-21T11:50:29.740Z,1.00
2022-09-21T11:53:19.214Z,0.90
2022-09-21T11:56:06.409Z,1.10
2022-09-21T11:58:43.009Z,1.10
2022-09-21T12:01:26.994Z,1.00
2022-09-21T12:04:11.691Z,1.00
2022-09-21T12:06:52.959Z,1.00
2022-09-21T12:09:49.270Z,0.82
2022-09-21T12:12:23.741Z,1.00
2022-09-21T12:15:02.305Z,1.13
2022-09-21T12:17:45.660Z,1.13
2022-09-21T12:20:22.975Z,0.88
2022-09-21T12:22:57.018Z,0.93
2022-09-21T12:25:28.357Z,1.08
2022-09-21T12:28:02.094Z,1.10
2022-09-21T12:30:33.252Z,1.10
2022-09-21T12:33:05.686Z,1.20
2022-09-21T12:35:39.256Z,1.00
2022-09-21T12:38:16.424Z,0.90
2022-09-21T12:40:51.666Z,1.23
2022-09-21T12:43:30.109Z,1.00
2022-09-21T12:46:02.899Z,1.10
2022-09-21T12:48:33.930Z,0.82
2022-09-21T12:51:07.370Z,1.02
2022-09-21T12:53:38.789Z,1.08
2022-09-21T12:56:12.654Z,1.13
2022-09-21T12:58:51.973Z,1.17
2022-09-21T13:01:32.366Z,0.82
2022-09-21T13:04:27.628Z,0.75
2022-09-21T13:07:25.187Z,1.40
2022-09-21T13:09:54.057Z,1.10
2022-09-21T13:12:25.659Z,1.10
2022-09-21T13:14:59.840Z,1.00
2022-09-21T13:17:32.064Z,1.10
